Time;durP1;ratioP1;P1;durP2;ratioP2;P2;SDS_P1;SDS_P2;PMS_P1;PMS_P2;Temp;Humidity;BMP_temperature;BMP_pressure;BME280_temperature;BME280_humidity;BME280_pressure;Samples;Min_cycle;Max_cycle;Signal;HPM_P1;HPM_P2
2023/10/02 00:05:07;;;;;;;18.55;8.23;;;18.20;99.90;;;;;;5061103;28;20052;-67
2023/10/02 00:07:34;;;;;;;20.45;9.45;;;18.20;99.90;;;;;;5042208;28;20052;-67
2023/10/02 00:10:01;;;;;;;22.67;9.85;;;18.20;99.90;;;;;;5060381;28;20041;-67
2023/10/02 00:12:31;;;;;;;23.70;10.00;;;18.20;99.90;;;;;;5059735;28;20057;-67
2023/10/02 00:14:58;;;;;;;20.60;9.35;;;18.20;99.90;;;;;;5062680;28;20040;-67
2023/10/02 00:17:24;;;;;;;24.27;10.38;;;18.10;99.90;;;;;;5055411;28;20177;-67
2023/10/02 00:20:13;;;;;;;24.55;10.13;;;18.10;99.90;;;;;;5061613;28;20579;-67
2023/10/02 00:22:41;;;;;;;21.90;10.25;;;18.10;99.90;;;;;;5046394;28;20064;-67
2023/10/02 00:25:21;;;;;;;22.42;10.07;;;18.10;99.90;;;;;;5060686;28;20052;-67
2023/10/02 00:27:51;;;;;;;22.42;10.95;;;18.10;99.90;;;;;;5061677;28;20044;-67
2023/10/02 00:30:22;;;;;;;22.20;9.68;;;18.00;99.90;;;;;;5063605;28;20037;-67
2023/10/02 00:32:49;;;;;;;;;;;18.00;99.90;;;;;;5060397;28;20041;-68
2023/10/02 00:35:15;;;;;;;27.17;9.98;;;18.00;99.90;;;;;;5051776;28;19945;-70
2023/10/02 00:37:47;;;;;;;22.65;10.45;;;18.00;99.90;;;;;;5047283;28;20431;-70
2023/10/02 00:40:22;;;;;;;24.95;10.70;;;18.00;99.90;;;;;;5038764;28;20110;-70
2023/10/02 00:42:56;;;;;;;23.38;10.52;;;18.00;99.90;;;;;;5061721;28;20083;-70
2023/10/02 00:45:23;;;;;;;19.83;10.02;;;17.90;99.90;;;;;;5045904;28;20084;-69
2023/10/02 00:47:52;;;;;;;24.23;11.05;;;17.90;99.90;;;;;;5059169;28;20079;-70
2023/10/02 00:50:22;;;;;;;23.58;10.73;;;17.90;99.90;;;;;;5045164;28;20568;-71
2023/10/02 00:53:04;;;;;;;25.08;10.65;;;17.80;99.90;;;;;;5045933;28;20064;-69
2023/10/02 00:55:32;;;;;;;25.33;10.05;;;17.80;99.90;;;;;;5047583;28;20053;-70
2023/10/02 00:58:01;;;;;;;24.73;10.85;;;17.80;99.90;;;;;;5028324;28;20464;-69
2023/10/02 01:00:31;;;;;;;25.42;12.30;;;17.80;99.90;;;;;;5060027;28;20517;-70
2023/10/02 01:03:01;;;;;;;22.15;10.38;;;17.80;99.90;;;;;;5063329;28;20041;-70
2023/10/02 01:08:25;;;;;;;26.35;11.23;;;17.70;99.90;;;;;;5059563;28;20509;-70
2023/10/02 01:11:04;;;;;;;22.55;11.05;;;17.70;99.90;;;;;;5059898;28;20052;-70
2023/10/02 01:13:34;;;;;;;24.60;11.73;;;17.60;99.90;;;;;;5046125;28;20048;-70
2023/10/02 01:16:07;;;;;;;24.80;10.27;;;17.60;99.90;;;;;;5063830;28;20071;-70
2023/10/02 01:18:37;;;;;;;26.63;11.48;;;17.60;99.90;;;;;;5064603;28;20420;-70
2023/10/02 01:21:14;;;;;;;24.73;11.63;;;17.60;99.90;;;;;;5043695;28;20052;-70
2023/10/02 01:24:07;;;;;;;24.67;11.50;;;17.60;99.90;;;;;;5073398;28;20059;-70
2023/10/02 01:26:40;;;;;;;20.13;10.13;;;17.50;99.90;;;;;;5057438;28;20490;-70
2023/10/02 01:29:07;;;;;;;22.88;11.05;;;17.50;99.90;;;;;;5046973;28;20636;-70
2023/10/02 01:31:45;;;;;;;26.73;12.52;;;17.50;99.90;;;;;;5062728;28;20075;-70
2023/10/02 01:36:57;;;;;;;30.17;12.80;;;17.50;99.90;;;;;;5065423;28;20497;-69
2023/10/02 01:39:22;;;;;;;25.30;12.15;;;17.50;99.90;;;;;;5055662;28;20032;-70
2023/10/02 01:41:54;;;;;;;24.23;12.70;;;17.50;99.90;;;;;;5048769;28;20044;-70
2023/10/02 01:44:22;;;;;;;23.98;11.73;;;17.50;99.90;;;;;;5058026;28;20145;-71
2023/10/02 01:46:52;;;;;;;27.88;12.88;;;17.50;99.90;;;;;;5058989;28;20045;-70
2023/10/02 01:49:24;;;;;;;27.90;13.45;;;17.50;99.90;;;;;;5038155;28;20041;-71
2023/10/02 01:51:55;;;;;;;23.83;12.10;;;17.40;99.90;;;;;;5049542;28;20502;-70
2023/10/02 01:54:31;;;;;;;24.88;12.13;;;17.40;99.90;;;;;;5062146;28;20421;-70
2023/10/02 01:56:59;;;;;;;26.77;12.40;;;17.50;99.90;;;;;;5064708;28;20824;-70
2023/10/02 01:59:26;;;;;;;27.67;12.80;;;17.50;99.90;;;;;;5063376;28;20428;-70
2023/10/02 02:01:54;;;;;;;28.95;14.00;;;17.40;99.90;;;;;;5061480;28;20531;-70
2023/10/02 02:04:28;;;;;;;24.55;13.13;;;17.40;99.90;;;;;;5058559;28;20052;-70
2023/10/02 02:06:56;;;;;;;26.63;13.30;;;17.40;99.90;;;;;;5064246;28;20076;-70
2023/10/02 02:09:25;;;;;;;26.48;13.45;;;17.40;99.90;;;;;;5060779;28;20044;-70
2023/10/02 02:12:08;;;;;;;26.80;13.70;;;17.40;99.90;;;;;;5061502;28;20048;-71
2023/10/02 02:14:41;;;;;;;25.55;12.38;;;17.40;99.90;;;;;;5064142;28;20078;-71
2023/10/02 02:17:10;;;;;;;26.52;13.23;;;17.40;99.90;;;;;;5046229;28;20097;-70
2023/10/02 02:19:37;;;;;;;29.65;14.55;;;17.40;99.90;;;;;;5061102;28;20864;-70
2023/10/02 02:22:03;;;;;;;27.30;13.00;;;17.30;99.90;;;;;;5064133;28;20053;-70
2023/10/02 02:24:34;;;;;;;25.98;13.98;;;17.30;99.90;;;;;;5049242;28;20056;-70
2023/10/02 02:27:04;;;;;;;28.40;13.65;;;17.30;99.90;;;;;;5050374;28;20048;-70
2023/10/02 02:29:30;;;;;;;29.02;14.48;;;17.30;99.90;;;;;;5067352;28;20090;-71
2023/10/02 02:31:56;;;;;;;26.13;14.13;;;17.30;99.90;;;;;;5078760;28;20040;-71
2023/10/02 02:34:23;;;;;;;27.10;14.05;;;17.30;99.90;;;;;;5102327;28;21122;-71
2023/10/02 02:36:50;;;;;;;27.45;15.40;;;17.30;99.90;;;;;;5078492;28;20040;-70
2023/10/02 02:39:21;;;;;;;30.50;14.23;;;17.20;99.90;;;;;;5066038;28;20127;-71
2023/10/02 02:41:47;;;;;;;28.50;14.80;;;17.20;99.90;;;;;;5065275;28;20059;-71
2023/10/02 02:47:07;;;;;;;32.33;15.52;;;17.20;99.90;;;;;;5067034;28;20048;-71
2023/10/02 02:49:48;;;;;;;30.35;14.70;;;17.20;99.90;;;;;;5067053;28;20094;-71
2023/10/02 02:52:33;;;;;;;30.90;15.82;;;17.10;99.90;;;;;;5061253;28;20828;-70
2023/10/02 02:55:05;;;;;;;31.80;15.05;;;17.10;99.90;;;;;;5066762;28;20046;-70
2023/10/02 02:57:34;;;;;;;29.05;14.93;;;17.20;99.90;;;;;;5068623;28;20405;-70
2023/10/02 03:02:53;;;;;;;33.55;15.75;;;17.10;99.90;;;;;;5067109;28;20135;-71
2023/10/02 03:05:21;;;;;;;31.80;15.38;;;17.10;99.90;;;;;;5067932;28;20086;-70
2023/10/02 03:07:49;;;;;;;33.22;15.77;;;17.10;99.90;;;;;;5067785;28;20041;-70
2023/10/02 03:10:19;;;;;;;32.47;16.25;;;17.10;99.90;;;;;;5066212;28;20580;-72
2023/10/02 03:12:45;;;;;;;31.37;15.87;;;17.10;99.90;;;;;;5060293;28;20450;-71
2023/10/02 03:15:45;;;;;;;30.88;15.30;;;17.10;99.90;;;;;;5065925;28;20055;-70
2023/10/02 03:18:30;;;;;;;34.05;15.25;;;17.10;99.90;;;;;;5066555;28;20052;-70
2023/10/02 03:23:38;;;;;;;32.30;16.05;;;17.10;99.90;;;;;;5065934;28;20409;-70
2023/10/02 03:26:16;;;;;;;31.42;15.75;;;17.00;99.90;;;;;;5067777;28;20052;-70
2023/10/02 03:28:42;;;;;;;30.50;15.18;;;17.00;99.90;;;;;;5065759;28;20052;-70
2023/10/02 03:31:16;;;;;;;31.08;15.25;;;17.00;99.90;;;;;;5042770;28;20157;-71
2023/10/02 03:33:42;;;;;;;33.15;16.38;;;17.00;99.90;;;;;;5067000;28;20048;-71
2023/10/02 03:36:14;;;;;;;30.67;16.20;;;17.00;99.90;;;;;;5066553;28;20044;-71
2023/10/02 03:38:41;;;;;;;;;;;17.00;99.90;;;;;;5043897;28;20058;-70
2023/10/02 03:41:08;;;;;;;32.28;14.65;;;17.00;99.90;;;;;;5066347;28;20499;-71
2023/10/02 03:43:34;;;;;;;33.80;16.13;;;17.00;99.90;;;;;;5059059;28;20041;-70
2023/10/02 03:46:04;;;;;;;38.22;17.48;;;16.90;99.90;;;;;;5065710;28;20197;-71
2023/10/02 03:48:32;;;;;;;34.55;16.02;;;16.90;99.90;;;;;;5065801;28;20055;-70
2023/10/02 03:50:59;;;;;;;30.00;15.60;;;16.90;99.90;;;;;;5065632;28;20032;-70
2023/10/02 03:53:32;;;;;;;31.85;16.08;;;16.90;99.90;;;;;;5065230;28;20071;-71
2023/10/02 03:58:52;;;;;;;30.80;14.57;;;16.90;99.90;;;;;;5065617;28;20429;-71
2023/10/02 04:01:31;;;;;;;31.40;15.68;;;16.90;99.90;;;;;;5065965;28;20040;-71
2023/10/02 04:06:42;;;;;;;30.50;15.27;;;16.90;99.90;;;;;;5065890;28;20413;-70
2023/10/02 04:09:18;;;;;;;31.17;16.38;;;16.80;99.90;;;;;;5065161;28;20056;-70
2023/10/02 04:11:45;;;;;;;32.33;14.75;;;16.80;99.90;;;;;;5066793;28;20048;-71
2023/10/02 04:14:17;;;;;;;34.00;15.13;;;16.80;99.90;;;;;;5064552;28;20719;-71
2023/10/02 04:16:47;;;;;;;28.73;14.88;;;16.80;99.90;;;;;;5065497;28;20129;-69
2023/10/02 04:19:15;;;;;;;28.50;14.82;;;16.70;99.90;;;;;;5065992;28;20040;-70
2023/10/02 04:21:45;;;;;;;29.92;14.93;;;16.70;99.90;;;;;;5062166;28;20040;-70
2023/10/02 04:24:11;;;;;;;29.95;14.95;;;16.70;99.90;;;;;;5048586;28;20041;-70
2023/10/02 04:26:41;;;;;;;26.38;14.68;;;16.70;99.90;;;;;;5065532;28;20505;-70
2023/10/02 04:34:46;;;;;;;28.33;15.25;;;16.70;99.90;;;;;;5080956;28;20169;-70
2023/10/02 04:37:22;;;;;;;26.40;14.32;;;16.70;99.90;;;;;;5084213;28;20043;-71
2023/10/02 04:42:57;;;;;;;32.33;15.60;;;16.70;99.90;;;;;;5051586;28;20057;-69
2023/10/02 04:45:25;;;;;;;27.23;14.38;;;16.70;99.90;;;;;;5061987;28;20564;-70
2023/10/02 04:47:54;;;;;;;32.17;15.07;;;16.80;99.90;;;;;;5065966;28;20059;-70
2023/10/02 04:52:57;;;;;;;29.80;14.73;;;16.70;99.90;;;;;;5065797;28;20071;-69
2023/10/02 04:55:31;;;;;;;27.67;13.75;;;16.60;99.90;;;;;;5065549;28;20052;-70
2023/10/02 04:58:09;;;;;;;31.73;15.65;;;16.60;99.90;;;;;;5065724;28;20051;-70
2023/10/02 05:03:27;;;;;;;29.50;14.65;;;16.60;99.90;;;;;;5057014;28;20059;-70
2023/10/02 05:05:54;;;;;;;27.33;14.57;;;16.60;99.90;;;;;;5066596;28;20386;-70
2023/10/02 05:11:26;;;;;;;31.90;14.77;;;16.60;99.90;;;;;;5031282;28;20455;-70
2023/10/02 05:16:34;;;;;;;33.38;16.10;;;16.60;99.90;;;;;;5067997;28;20139;-70
2023/10/02 05:19:04;;;;;;;33.88;15.38;;;16.60;99.90;;;;;;5053727;28;20987;-69
2023/10/02 05:21:38;;;;;;;29.40;15.45;;;16.50;99.90;;;;;;5046922;28;20040;-71
2023/10/02 05:24:13;;;;;;;32.00;14.70;;;16.50;99.90;;;;;;5053888;28;20045;-70
2023/10/02 05:26:41;;;;;;;31.35;16.35;;;16.50;99.90;;;;;;5074856;28;20407;-70
2023/10/02 05:29:17;;;;;;;29.83;15.55;;;16.50;99.90;;;;;;5064449;28;20522;-70
2023/10/02 05:31:47;;;;;;;28.88;15.13;;;16.50;99.90;;;;;;5062613;28;20101;-70
2023/10/02 05:34:23;;;;;;;34.37;16.77;;;16.50;99.90;;;;;;5064274;28;20033;-70
2023/10/02 05:39:39;;;;;;;32.08;15.95;;;16.50;99.90;;;;;;5058663;28;20072;-70
2023/10/02 05:42:15;;;;;;;28.17;15.20;;;16.50;99.90;;;;;;5063418;28;20049;-70
2023/10/02 05:44:44;;;;;;;33.50;16.58;;;16.50;99.90;;;;;;5060480;28;20337;-70
2023/10/02 05:47:15;;;;;;;30.15;15.85;;;16.40;99.90;;;;;;5050936;28;20127;-70
2023/10/02 05:49:47;;;;;;;30.05;15.02;;;16.40;99.90;;;;;;5062630;28;20052;-70
2023/10/02 05:52:23;;;;;;;31.25;16.15;;;16.40;99.90;;;;;;5040028;28;20041;-71
2023/10/02 05:54:53;;;;;;;32.03;16.15;;;16.40;99.90;;;;;;5059151;28;20710;-70
2023/10/02 05:57:20;;;;;;;27.73;14.95;;;16.40;99.90;;;;;;5038959;28;20941;-71
2023/10/02 05:59:48;;;;;;;28.58;14.73;;;16.40;99.90;;;;;;5060258;28;20048;-70
2023/10/02 06:02:22;;;;;;;34.38;15.63;;;16.40;99.90;;;;;;5062853;28;20413;-70
2023/10/02 06:04:52;;;;;;;31.65;15.45;;;16.40;99.90;;;;;;5061074;28;20079;-71
2023/10/02 06:07:40;;;;;;;30.35;16.10;;;16.40;99.90;;;;;;5039612;28;20045;-71
2023/10/02 06:10:08;;;;;;;31.33;14.93;;;16.40;99.90;;;;;;5069856;28;20049;-70
2023/10/02 06:12:42;;;;;;;30.70;15.73;;;16.40;99.90;;;;;;5053817;28;20134;-70
2023/10/02 06:15:42;;;;;;;32.05;16.13;;;16.40;99.90;;;;;;5060802;28;20045;-70
2023/10/02 06:17:56;;;;;;;32.72;15.40;;;16.40;99.90;;;;;;5048189;28;20147;-70
2023/10/02 06:20:22;;;;;;;31.30;17.08;;;16.40;99.90;;;;;;5046050;28;20056;-71
2023/10/02 06:22:50;;;;;;;28.50;15.35;;;16.40;99.90;;;;;;5063790;28;20067;-71
2023/10/02 06:25:18;;;;;;;29.92;15.25;;;16.40;99.90;;;;;;5062903;28;20142;-71
2023/10/02 06:27:47;;;;;;;32.65;16.13;;;16.40;99.90;;;;;;5063757;28;20145;-69
2023/10/02 06:30:16;;;;;;;29.17;15.20;;;16.40;99.90;;;;;;5063325;28;20040;-71
2023/10/02 06:32:54;;;;;;;31.42;15.38;;;16.40;99.90;;;;;;5048430;28;20051;-71
2023/10/02 06:35:21;;;;;;;30.88;16.17;;;16.40;99.90;;;;;;5065264;28;20146;-71
2023/10/02 06:37:49;;;;;;;36.75;16.38;;;16.40;99.90;;;;;;5065452;28;20501;-71
2023/10/02 06:40:16;;;;;;;31.80;17.08;;;16.40;99.90;;;;;;5064825;28;20094;-71
2023/10/02 06:42:48;;;;;;;29.70;15.40;;;16.40;99.90;;;;;;5065399;28;20051;-71
2023/10/02 06:45:18;;;;;;;36.35;16.85;;;16.40;99.90;;;;;;5064327;28;20036;-71
2023/10/02 06:47:44;;;;;;;36.15;15.73;;;16.40;99.90;;;;;;5064913;28;20056;-71
2023/10/02 06:52:57;;;;;;;27.73;15.38;;;16.40;99.90;;;;;;5067930;28;20110;-71
2023/10/02 06:55:25;;;;;;;33.80;15.48;;;16.40;99.90;;;;;;5067147;28;20788;-71
2023/10/02 06:57:52;;;;;;;36.08;16.42;;;16.40;99.90;;;;;;5067479;28;20044;-71
2023/10/02 07:00:22;;;;;;;33.35;15.98;;;16.40;99.90;;;;;;5066349;28;20552;-71
2023/10/02 07:02:56;;;;;;;32.20;15.95;;;16.50;99.90;;;;;;5066018;28;20520;-71
2023/10/02 07:05:35;;;;;;;30.85;16.10;;;16.50;99.90;;;;;;5059686;28;20060;-70
2023/10/02 07:08:17;;;;;;;37.67;16.10;;;16.50;99.90;;;;;;5058720;28;20055;-70
2023/10/02 07:10:47;;;;;;;32.13;15.65;;;16.60;99.90;;;;;;5062421;28;20412;-71
2023/10/02 07:13:20;;;;;;;31.50;16.43;;;16.60;99.90;;;;;;5046696;28;20036;-71
2023/10/02 07:15:56;;;;;;;31.67;16.33;;;16.70;99.90;;;;;;5063096;28;20045;-71
2023/10/02 07:18:37;;;;;;;32.60;16.85;;;16.70;99.90;;;;;;5062127;28;20052;-71
2023/10/02 07:21:09;;;;;;;33.43;16.17;;;16.80;99.90;;;;;;5058471;28;20419;-71
2023/10/02 07:23:37;;;;;;;32.47;16.17;;;16.80;99.90;;;;;;5065999;28;20390;-72
2023/10/02 07:26:04;;;;;;;31.08;15.60;;;16.90;99.90;;;;;;5068803;28;20488;-71
2023/10/02 07:28:31;;;;;;;32.47;16.35;;;16.90;99.90;;;;;;5077638;28;20048;-71
2023/10/02 07:30:59;;;;;;;30.15;16.63;;;17.00;99.90;;;;;;5061363;28;20036;-71
2023/10/02 07:33:24;;;;;;;31.25;15.82;;;17.00;99.90;;;;;;5040927;28;20045;-71
2023/10/02 07:35:53;;;;;;;31.42;15.75;;;17.10;99.90;;;;;;5074888;28;20409;-71
2023/10/02 07:38:30;;;;;;;31.13;17.10;;;17.10;99.90;;;;;;5058257;28;20155;-72
2023/10/02 07:41:08;;;;;;;31.70;16.23;;;17.20;99.90;;;;;;5060643;28;20773;-72
2023/10/02 07:43:34;;;;;;;29.60;16.10;;;17.20;99.90;;;;;;5079788;28;20464;-72
2023/10/02 07:46:18;;;;;;;36.85;16.67;;;17.30;99.90;;;;;;5060817;28;20063;-71
2023/10/02 07:48:56;;;;;;;32.45;17.13;;;17.40;99.90;;;;;;5064378;28;20041;-71
2023/10/02 07:51:30;;;;;;;28.35;15.52;;;17.50;99.90;;;;;;5059238;28;20051;-71
2023/10/02 07:53:59;;;;;;;36.28;16.25;;;17.50;99.90;;;;;;5038726;28;20050;-71
2023/10/02 07:56:29;;;;;;;27.83;15.45;;;17.60;99.90;;;;;;5045665;28;20067;-71
2023/10/02 07:58:55;;;;;;;33.58;16.20;;;17.70;99.90;;;;;;5054661;28;20525;-71
2023/10/02 08:01:27;;;;;;;30.90;15.82;;;17.70;99.90;;;;;;5060848;28;20170;-70
2023/10/02 08:03:55;;;;;;;30.38;16.13;;;17.80;99.90;;;;;;5061096;28;20044;-71
2023/10/02 08:06:23;;;;;;;32.92;16.05;;;17.80;99.90;;;;;;5054410;28;20051;-71
2023/10/02 08:11:39;;;;;;;31.85;15.43;;;17.90;99.90;;;;;;5062373;28;20122;-70
2023/10/02 08:14:06;;;;;;;30.52;16.50;;;18.00;99.90;;;;;;5054500;28;20068;-70
2023/10/02 08:16:58;;;;;;;32.50;17.38;;;18.00;99.90;;;;;;5051824;28;20589;-71
2023/10/02 08:19:20;;;;;;;37.67;17.48;;;18.10;99.90;;;;;;5057934;28;20040;-71
2023/10/02 08:21:46;;;;;;;32.05;16.58;;;18.10;99.90;;;;;;5051663;28;20051;-70
2023/10/02 08:24:15;;;;;;;35.42;16.67;;;18.20;99.90;;;;;;5054158;28;20044;-70
2023/10/02 08:26:43;;;;;;;34.63;17.42;;;18.20;99.90;;;;;;5065331;28;20637;-71
2023/10/02 08:29:14;;;;;;;33.15;15.85;;;18.30;99.90;;;;;;5064411;28;20055;-71
2023/10/02 08:31:44;;;;;;;;;;;18.30;99.90;;;;;;5058334;28;20788;-70
2023/10/02 08:34:23;;;;;;;33.88;16.83;;;18.40;99.90;;;;;;5055138;28;20378;-70
2023/10/02 08:37:05;;;;;;;36.80;17.73;;;18.40;99.90;;;;;;5054788;28;20049;-71
2023/10/02 08:39:41;;;;;;;33.53;17.42;;;18.50;99.90;;;;;;5053991;28;20047;-71
2023/10/02 08:42:11;;;;;;;38.15;16.70;;;18.50;99.90;;;;;;5060732;28;20044;-70
2023/10/02 08:45:00;;;;;;;33.17;17.77;;;18.50;99.90;;;;;;5055720;28;20048;-70
2023/10/02 08:47:27;;;;;;;38.92;17.55;;;18.50;99.90;;;;;;5052812;28;20123;-70
2023/10/02 08:50:03;;;;;;;41.45;18.20;;;18.50;99.90;;;;;;5050032;28;20451;-70
2023/10/02 08:52:38;;;;;;;38.90;17.33;;;18.60;99.90;;;;;;5051355;28;20545;-70
2023/10/02 08:55:51;;;;;;;34.17;17.63;;;18.60;99.90;;;;;;5051487;28;20851;-70
2023/10/02 08:58:21;;;;;;;35.47;17.35;;;18.60;99.90;;;;;;5035721;28;20067;-70
2023/10/02 09:03:42;;;;;;;38.80;17.92;;;18.60;99.90;;;;;;5069111;28;20083;-70
2023/10/02 09:06:32;;;;;;;35.33;17.48;;;18.70;99.90;;;;;;5043291;28;20041;-71
2023/10/02 09:11:41;;;;;;;35.20;17.15;;;18.70;99.90;;;;;;5054001;28;20786;-70
2023/10/02 09:16:47;;;;;;;40.72;19.92;;;18.90;99.90;;;;;;5048220;28;20124;-71
2023/10/02 09:19:30;;;;;;;36.97;17.90;;;18.90;99.90;;;;;;5050594;28;20056;-71
2023/10/02 09:22:06;;;;;;;35.40;17.98;;;19.10;99.90;;;;;;5063933;28;20137;-70
2023/10/02 09:24:40;;;;;;;35.00;17.83;;;19.10;99.90;;;;;;5064670;28;20517;-70
2023/10/02 09:27:30;;;;;;;35.63;17.77;;;19.10;99.90;;;;;;5052164;28;20076;-70
2023/10/02 09:30:21;;;;;;;36.47;16.23;;;19.20;99.90;;;;;;5051510;28;20091;-71
2023/10/02 09:32:53;;;;;;;35.35;17.80;;;19.20;99.90;;;;;;5065532;28;20041;-71
2023/10/02 09:35:32;;;;;;;36.53;18.17;;;19.20;99.90;;;;;;5056688;28;20037;-70
2023/10/02 09:38:04;;;;;;;31.60;17.27;;;19.30;99.90;;;;;;5063985;28;20048;-71
2023/10/02 09:43:23;;;;;;;38.25;17.58;;;19.30;99.90;;;;;;5060550;28;20048;-70
2023/10/02 09:45:54;;;;;;;39.00;18.75;;;19.30;99.90;;;;;;5061150;28;20097;-71
2023/10/02 09:48:47;;;;;;;37.22;17.10;;;19.30;99.90;;;;;;5060109;28;20052;-70
2023/10/02 09:51:20;;;;;;;35.42;16.48;;;19.30;99.90;;;;;;5061656;28;20080;-70
2023/10/02 09:54:13;;;;;;;33.83;16.15;;;19.30;99.90;;;;;;5055602;28;20521;-71
2023/10/02 09:56:51;;;;;;;33.40;17.45;;;19.40;99.90;;;;;;5025581;28;20052;-70
2023/10/02 09:59:22;;;;;;;35.08;17.30;;;19.40;99.90;;;;;;5060339;28;20052;-70
2023/10/02 10:05:22;;;;;;;32.83;17.35;;;19.50;99.90;;;;;;5058488;28;20051;-71
2023/10/02 10:08:18;;;;;;;39.88;18.52;;;19.60;99.90;;;;;;5064634;28;20413;-70
2023/10/02 10:10:57;;;;;;;38.67;17.98;;;19.60;99.90;;;;;;5058767;28;20044;-71
2023/10/02 10:13:37;;;;;;;35.17;16.98;;;19.60;99.90;;;;;;5052352;28;20052;-70
2023/10/02 10:16:23;;;;;;;31.73;17.33;;;19.70;99.90;;;;;;5036585;28;20056;-71
2023/10/02 10:22:01;;;;;;;33.35;16.52;;;19.80;99.90;;;;;;5053087;28;20052;-71
2023/10/02 10:27:39;;;;;;;33.58;17.02;;;19.90;99.90;;;;;;5067799;28;20410;-70
2023/10/02 10:30:24;;;;;;;30.40;16.55;;;19.90;99.90;;;;;;5068483;28;20124;-71
2023/10/02 10:35:57;;;;;;;32.85;16.98;;;20.10;99.90;;;;;;5061155;28;20067;-72
2023/10/02 10:38:25;;;;;;;35.45;16.50;;;20.10;99.90;;;;;;5060650;28;20055;-71
2023/10/02 10:41:00;;;;;;;35.00;16.00;;;20.10;99.90;;;;;;5066851;28;20048;-71
2023/10/02 10:43:55;;;;;;;31.42;14.77;;;20.20;99.90;;;;;;5055400;28;20044;-71
2023/10/02 10:46:29;;;;;;;29.60;16.25;;;20.30;99.90;;;;;;5033612;28;20047;-71
2023/10/02 10:48:59;;;;;;;34.55;18.08;;;20.30;99.90;;;;;;5055792;28;20063;-71
2023/10/02 10:51:27;;;;;;;31.35;17.00;;;20.30;99.90;;;;;;5057983;28;20072;-71
2023/10/02 10:54:19;;;;;;;34.25;17.98;;;20.30;99.90;;;;;;5032467;28;21273;-71
2023/10/02 10:56:55;;;;;;;34.00;16.73;;;20.30;99.90;;;;;;5054937;28;20048;-71
2023/10/02 10:59:32;;;;;;;34.63;15.93;;;20.30;99.90;;;;;;5048215;28;20056;-70
2023/10/02 11:02:17;;;;;;;31.00;15.85;;;20.30;99.90;;;;;;5055166;28;20064;-70
2023/10/02 11:04:47;;;;;;;34.30;17.10;;;20.30;99.90;;;;;;5052194;28;20409;-71
2023/10/02 11:07:19;;;;;;;31.60;16.25;;;20.40;99.90;;;;;;5034129;28;21928;-71
2023/10/02 11:10:15;;;;;;;34.50;17.50;;;20.30;99.90;;;;;;5055323;28;20397;-71
2023/10/02 11:12:57;;;;;;;34.55;17.10;;;20.40;99.90;;;;;;5038472;28;20055;-68
2023/10/02 11:15:46;;;;;;;33.35;17.10;;;20.40;99.90;;;;;;5040420;28;20642;-70
2023/10/02 11:18:18;;;;;;;31.88;15.75;;;20.40;99.90;;;;;;5050137;28;20584;-70
2023/10/02 11:20:51;;;;;;;31.70;17.02;;;20.40;99.90;;;;;;5044863;28;20883;-70
2023/10/02 11:23:40;;;;;;;30.55;16.90;;;20.50;99.90;;;;;;5051319;28;20076;-70
2023/10/02 11:26:12;;;;;;;33.70;17.85;;;20.50;99.90;;;;;;5052090;28;20413;-71
2023/10/02 11:28:44;;;;;;;34.15;16.17;;;20.50;99.90;;;;;;5051343;28;20502;-70
2023/10/02 11:31:38;;;;;;;33.50;16.75;;;20.60;99.90;;;;;;5029293;28;20048;-70
2023/10/02 11:34:08;;;;;;;26.95;15.68;;;20.60;99.90;;;;;;5052120;28;20131;-70
2023/10/02 11:36:39;;;;;;;32.95;15.95;;;20.70;99.90;;;;;;5051316;28;20058;-71
2023/10/02 11:39:16;;;;;;;30.55;17.25;;;20.70;99.90;;;;;;5047917;28;20041;-70
2023/10/02 11:41:42;;;;;;;32.90;17.80;;;20.80;99.90;;;;;;5048208;28;20095;-70
2023/10/02 11:44:12;;;;;;;31.42;16.20;;;20.80;99.90;;;;;;5049087;28;20060;-71
2023/10/02 11:46:40;;;;;;;34.13;17.65;;;20.80;99.90;;;;;;5035820;28;20063;-71
2023/10/02 11:49:10;;;;;;;32.72;17.17;;;20.80;99.90;;;;;;5065013;28;20113;-70
2023/10/02 11:51:36;;;;;;;31.15;16.40;;;20.90;99.90;;;;;;5066515;28;20052;-71
2023/10/02 11:54:08;;;;;;;31.25;16.77;;;20.90;99.90;;;;;;5035137;28;20679;-71
2023/10/02 11:56:35;;;;;;;30.67;17.42;;;20.90;99.90;;;;;;5028077;28;20045;-71
2023/10/02 11:59:02;;;;;;;27.02;14.82;;;20.90;99.90;;;;;;5044695;28;20056;-70
2023/10/02 12:01:28;;;;;;;30.67;16.17;;;21.00;99.90;;;;;;5048911;28;20059;-70
2023/10/02 12:03:57;;;;;;;36.47;16.85;;;21.00;99.90;;;;;;5048235;28;20049;-70
2023/10/02 12:06:28;;;;;;;29.02;15.52;;;21.00;99.90;;;;;;5049707;28;20045;-71
2023/10/02 12:08:58;;;;;;;27.17;13.98;;;21.00;99.90;;;;;;5046798;28;20040;-70
2023/10/02 12:11:28;;;;;;;29.05;14.38;;;21.00;99.90;;;;;;5041625;28;20087;-70
2023/10/02 12:13:55;;;;;;;29.33;15.15;;;21.10;99.90;;;;;;5050514;28;20092;-71
2023/10/02 12:16:23;;;;;;;29.08;14.50;;;21.10;99.90;;;;;;5057289;28;20052;-72
2023/10/02 12:18:50;;;;;;;30.50;15.23;;;21.00;99.90;;;;;;5045758;28;20072;-72
2023/10/02 12:21:19;;;;;;;29.38;14.98;;;21.10;99.90;;;;;;5043752;28;20414;-71
2023/10/02 12:23:46;;;;;;;26.98;14.38;;;21.00;99.90;;;;;;5014649;28;20332;-71
2023/10/02 12:26:17;;;;;;;25.17;13.82;;;21.00;99.90;;;;;;5029963;28;20049;-72
2023/10/02 12:28:43;;;;;;;30.67;16.40;;;21.00;99.90;;;;;;5056269;28;20040;-71
2023/10/02 12:31:17;;;;;;;29.65;16.15;;;21.10;99.90;;;;;;5040033;28;20092;-71
2023/10/02 12:33:48;;;;;;;28.13;16.25;;;21.00;99.90;;;;;;5040670;28;20493;-71
2023/10/02 12:36:20;;;;;;;27.35;14.57;;;21.10;99.90;;;;;;5062844;28;20447;-71
2023/10/02 12:38:47;;;;;;;27.80;15.23;;;21.10;99.90;;;;;;5054784;28;20222;-71
2023/10/02 12:41:18;;;;;;;25.95;14.00;;;21.00;99.90;;;;;;5054794;28;20610;-71
2023/10/02 12:43:45;;;;;;;30.25;15.25;;;21.00;99.90;;;;;;5073381;28;20497;-71
2023/10/02 12:46:15;;;;;;;25.02;12.85;;;21.00;99.90;;;;;;5040987;28;20048;-71
2023/10/02 12:48:50;;;;;;;29.23;14.88;;;21.00;99.90;;;;;;5046725;28;20044;-71
2023/10/02 12:51:17;;;;;;;28.40;16.40;;;21.10;99.90;;;;;;5051585;28;20526;-72
2023/10/02 12:53:43;;;;;;;28.95;15.65;;;21.00;99.90;;;;;;5065981;28;20358;-73
2023/10/02 12:56:18;;;;;;;32.00;15.52;;;21.00;99.90;;;;;;5047628;28;20556;-71
2023/10/02 12:58:48;;;;;;;25.67;14.07;;;21.00;99.90;;;;;;5041137;28;20147;-68
2023/10/02 13:01:16;;;;;;;30.83;14.90;;;21.00;99.90;;;;;;5056794;28;20061;-68
2023/10/02 13:03:44;;;;;;;29.58;16.25;;;21.00;99.90;;;;;;5056440;28;20044;-68
2023/10/02 13:06:12;;;;;;;29.52;16.52;;;21.00;99.90;;;;;;5054500;28;20057;-67
2023/10/02 13:08:42;;;;;;;32.65;17.48;;;21.00;99.90;;;;;;5036419;28;20048;-69
2023/10/02 13:11:13;;;;;;;32.90;18.27;;;21.10;99.90;;;;;;5016445;28;20072;-67
2023/10/02 13:13:46;;;;;;;37.30;19.70;;;21.10;99.90;;;;;;5046798;28;20696;-67
2023/10/02 13:16:18;;;;;;;33.03;18.77;;;21.10;99.90;;;;;;5042476;28;20097;-67
2023/10/02 13:18:45;;;;;;;28.80;17.77;;;21.10;99.90;;;;;;5054946;28;20476;-67
2023/10/02 13:21:18;;;;;;;34.75;19.27;;;21.20;99.90;;;;;;5050957;28;20053;-67
2023/10/02 13:23:43;;;;;;;33.08;17.70;;;21.20;99.90;;;;;;5055123;28;20086;-67
2023/10/02 13:26:10;;;;;;;32.92;18.27;;;21.20;99.90;;;;;;5038824;28;20131;-67
2023/10/02 13:28:41;;;;;;;29.48;17.42;;;21.30;99.90;;;;;;5055038;28;20072;-67
2023/10/02 13:31:13;;;;;;;31.60;17.98;;;21.20;99.90;;;;;;5059330;28;20044;-67
2023/10/02 13:33:46;;;;;;;32.42;18.25;;;21.20;99.90;;;;;;5051166;28;20052;-69
2023/10/02 13:36:17;;;;;;;31.38;17.52;;;21.30;99.90;;;;;;5066687;28;20048;-69
2023/10/02 13:38:44;;;;;;;30.17;16.83;;;21.30;99.90;;;;;;5041021;28;20174;-67
2023/10/02 13:41:11;;;;;;;33.38;16.30;;;21.30;99.90;;;;;;5062910;28;20119;-68
2023/10/02 13:43:41;;;;;;;28.77;15.57;;;21.30;99.90;;;;;;5068527;28;20501;-67
2023/10/02 13:46:11;;;;;;;33.50;17.38;;;21.30;99.90;;;;;;5058918;28;20451;-69
2023/10/02 13:48:44;;;;;;;31.02;17.83;;;21.30;99.90;;;;;;5041482;28;20396;-68
2023/10/02 13:51:10;;;;;;;32.97;17.35;;;21.30;99.90;;;;;;5041732;28;20115;-68
2023/10/02 13:53:37;;;;;;;30.17;14.98;;;21.30;99.90;;;;;;5054756;28;20410;-67
2023/10/02 13:56:09;;;;;;;24.05;13.02;;;21.30;99.90;;;;;;5052350;28;20071;-68
2023/10/02 13:58:50;;;;;;;23.83;12.43;;;21.30;99.90;;;;;;5031605;28;20752;-68
2023/10/02 14:01:16;;;;;;;;;;;21.30;99.90;;;;;;5058475;28;20513;-68
2023/10/02 14:03:45;;;;;;;27.42;14.50;;;21.30;99.90;;;;;;5059830;28;19924;-69
2023/10/02 14:06:12;;;;;;;23.80;13.80;;;21.20;99.90;;;;;;5063712;28;20127;-67
2023/10/02 14:08:45;;;;;;;23.75;14.02;;;21.30;99.90;;;;;;5043748;28;20101;-67